Corystes — GHRU — position and weather

sailwx.info

Track history (hours):
 
Tides and Currents Weather Stations Pressure Air Temp Water Temp Dewpoint Dewpoint Depression Visibility Wind Speed Wind Dir Waves Ship Positions

Oceanographic research ship Corystes (UK)

Detailed information on ship capabilities available from University of Delaware's Ocean Information Center.

Last reported at 2019-Feb-21 11:30 UTC. Time now 2019-Feb-21 11:32 UTC.
Position N 55°15' W 006°24'.

Length 53 m; draft 5.2 m.

Type: Cargo ship. MMSI: 233558000.

Date/timePositionNaut miles runAvg speedWind from/ knotsBaromVisibWave heightAir tempDewpointWater temp
2019-Feb-21 11:30N 55°15' W 006°24'3 5.7
2019-Feb-21 10:59N 55°16' W 006°29'3 7.2
2019-Feb-21 10:31N 55°14' W 006°34'5 7.4
2019-Feb-21 09:50N 55°13' W 006°43'6 4.6
2019-Feb-21 08:35N 55°14' W 006°53'0 0.3
2019-Feb-21 08:03N 55°14' W 006°53'0 0.9
2019-Feb-21 07:55N 55°14' W 006°53'3 2.3
2019-Feb-21 06:42N 55°15' W 006°48'1 2.2
2019-Feb-21 06:26N 55°15' W 006°47'2 3.5
2019-Feb-21 05:59N 55°15' W 006°44'2 4.2
2019-Feb-21 05:30N 55°15' W 006°41'3 6.5
2019-Feb-21 05:00N 55°16' W 006°35'4 8.7
2019-Feb-21 04:30N 55°16' W 006°27'4 7.8
2019-Feb-21 04:00N 55°16' W 006°21'4 7.5
2019-Feb-21 03:30N 55°15' W 006°15'5 9.0
2019-Feb-21 03:00N 55°14' W 006°07'2010.6
2019-Feb-21 01:06N 54°57' W 005°49'1 9.9
2019-Feb-21 00:57N 54°56' W 005°48'4 9.7
2019-Feb-21 00:30N 54°53' W 005°43'5 9.3
2019-Feb-21 00:00N 54°48' W 005°40'5 9.7
2019-Feb-20 23:30N 54°43' W 005°41'4 8.6
2019-Feb-20 23:01N 54°41' W 005°47'4 8.2
2019-Feb-20 22:31N 54°38' W 005°52'2 0.2
2019-Feb-20 12:09N 54°36' W 005°55'0 0.0
2019-Feb-20 11:51N 54°36' W 005°55'0 0.0
2019-Feb-20 11:08N 54°36' W 005°55'0 0.0
2019-Feb-20 10:14N 54°36' W 005°55'0 0.0
2019-Feb-20 09:26N 54°36' W 005°55'0 0.0
2019-Feb-20 06:41N 54°36' W 005°55'0 0.0
2019-Feb-20 01:02N 54°36' W 005°55'0 0.0
2019-Feb-20 00:56N 54°36' W 005°55'0 0.0
2019-Feb-19 23:14N 54°36' W 005°55'0 0.0
2019-Feb-19 22:38N 54°36' W 005°55'0 0.0
2019-Feb-19 21:56N 54°36' W 005°55'0 0.0
2019-Feb-19 19:43N 54°36' W 005°55'0 0.0
2019-Feb-19 19:01N 54°36' W 005°55'0 0.0
2019-Feb-19 17:26N 54°36' W 005°55'0 0.0
2019-Feb-19 16:56N 54°36' W 005°55'0 0.0
2019-Feb-19 16:26N 54°36' W 005°55'0 0.0
2019-Feb-19 15:59N 54°36' W 005°55'0 0.0
2019-Feb-19 15:29N 54°36' W 005°55'0 0.0
2019-Feb-19 14:59N 54°36' W 005°55'0 0.0
2019-Feb-19 14:29N 54°36' W 005°55'0 0.0
2019-Feb-19 13:56N 54°36' W 005°55'0 0.0
2019-Feb-19 13:29N 54°36' W 005°55'0 0.0
2019-Feb-19 12:56N 54°36' W 005°55'0 0.0
2019-Feb-19 12:29N 54°36' W 005°55'0 0.0
2019-Feb-19 11:56N 54°36' W 005°55'0 0.0
2019-Feb-19 11:29N 54°36' W 005°55'0 0.0
2019-Feb-19 10:59N 54°36' W 005°55'0 0.0
2019-Feb-19 10:29N 54°36' W 005°55'0 0.0
2019-Feb-19 09:59N 54°36' W 005°55'0 0.0
2019-Feb-19 09:29N 54°36' W 005°55'0 0.0
2019-Feb-19 08:59N 54°36' W 005°55'0 0.0
2019-Feb-19 08:26N 54°36' W 005°55'0 0.0
2019-Feb-19 07:59N 54°36' W 005°55'0 0.0
2019-Feb-19 07:29N 54°36' W 005°55'0 0.0
2019-Feb-19 06:59N 54°36' W 005°55'0 0.0
2019-Feb-19 06:29N 54°36' W 005°55'0 0.0
2019-Feb-19 05:56N 54°36' W 005°55'0 0.0
2019-Feb-19 05:29N 54°36' W 005°55'0 0.0
2019-Feb-19 04:59N 54°36' W 005°55'0 0.0
2019-Feb-19 04:29N 54°36' W 005°55'0 0.0
2019-Feb-19 03:59N 54°36' W 005°55'0 0.0
2019-Feb-19 03:29N 54°36' W 005°55'0 0.0
2019-Feb-19 02:59N 54°36' W 005°55'0 0.0
2019-Feb-19 02:29N 54°36' W 005°55'0 0.0
2019-Feb-19 01:58N 54°36' W 005°55'0 0.0
2019-Feb-19 01:25N 54°36' W 005°55'0 0.0
2019-Feb-19 00:59N 54°36' W 005°55'0 0.0
2019-Feb-19 00:28N 54°36' W 005°55'0 0.0
2019-Feb-18 23:59N 54°36' W 005°55'0 0.0
2019-Feb-18 23:28N 54°36' W 005°55'0 0.0
2019-Feb-18 22:58N 54°36' W 005°55'0 0.0
2019-Feb-18 22:28N 54°36' W 005°55'0 0.0
2019-Feb-18 21:58N 54°36' W 005°55'0 0.0
2019-Feb-18 21:28N 54°36' W 005°55'0 0.0
2019-Feb-18 20:58N 54°36' W 005°55'0 0.0
2019-Feb-18 20:28N 54°36' W 005°55'0 0.0
2019-Feb-18 19:55N 54°36' W 005°55'0 0.0
2019-Feb-18 19:28N 54°36' W 005°55'0 0.0
2019-Feb-18 18:58N 54°36' W 005°55'0 0.0
2019-Feb-18 18:28N 54°36' W 005°55'0 0.5
2019-Feb-18 17:58N 54°36' W 005°55'0 0.1
2019-Feb-18 17:28N 54°36' W 005°55'0 0.0
2019-Feb-18 16:58N 54°36' W 005°55'0 0.0
2019-Feb-18 16:28N 54°36' W 005°55'0 0.0
2019-Feb-18 15:58N 54°36' W 005°55'0 0.0
2019-Feb-18 15:28N 54°36' W 005°55'0 0.0
2019-Feb-18 14:58N 54°36' W 005°55'0 0.0
2019-Feb-18 14:28N 54°36' W 005°55'0 0.0
2019-Feb-18 13:58N 54°36' W 005°55'0 0.0
2019-Feb-18 13:28N 54°36' W 005°55'0 0.0
2019-Feb-18 12:55N 54°36' W 005°55'0 0.0
2019-Feb-18 12:25N 54°36' W 005°55'0 0.0
2019-Feb-18 11:58N 54°36' W 005°55'0 0.0
2019-Feb-18 11:28N 54°36' W 005°55'0 0.0
2019-Feb-18 10:58N 54°36' W 005°55'0 0.0
2019-Feb-18 10:28N 54°36' W 005°55'0 0.0
2019-Feb-18 09:58N 54°36' W 005°55'0 0.0
2019-Feb-18 09:25N 54°36' W 005°55'0 0.0
2019-Feb-18 08:55N 54°36' W 005°55'0 0.0
2019-Feb-18 08:28N 54°36' W 005°55'0 0.0
2019-Feb-18 07:58N 54°36' W 005°55'0 0.0
2019-Feb-18 07:28N 54°36' W 005°55'0 0.0
2019-Feb-18 06:58N 54°36' W 005°55'0 0.0
2019-Feb-18 06:28N 54°36' W 005°55'0 0.0
2019-Feb-18 05:55N 54°36' W 005°55'0 0.0
2019-Feb-18 05:28N 54°36' W 005°55'0 0.0
2019-Feb-18 04:55N 54°36' W 005°55'0 0.0
2019-Feb-18 04:28N 54°36' W 005°55'0 0.0
2019-Feb-18 03:58N 54°36' W 005°55'0 0.0
2019-Feb-18 03:28N 54°36' W 005°55'0 0.0
2019-Feb-18 02:55N 54°36' W 005°55'0 0.0
2019-Feb-18 02:28N 54°36' W 005°55'0 0.0
2019-Feb-18 01:55N 54°36' W 005°55'0 0.0
2019-Feb-18 01:28N 54°36' W 005°55'0 0.0
2019-Feb-18 00:58N 54°36' W 005°55'0 0.0
2019-Feb-18 00:28N 54°36' W 005°55'0 0.0
2019-Feb-17 23:58N 54°36' W 005°55'0 0.0
2019-Feb-17 23:28N 54°36' W 005°55'0 0.0
2019-Feb-17 22:58N 54°36' W 005°55'0 0.0
2019-Feb-17 22:28N 54°36' W 005°55'0 0.0
2019-Feb-17 21:58N 54°36' W 005°55'0 0.0
2019-Feb-17 21:25N 54°36' W 005°55'0 0.0
2019-Feb-17 20:58N 54°36' W 005°55'0 0.0
2019-Feb-17 20:31N 54°36' W 005°55'0 0.0
2019-Feb-17 19:58N 54°36' W 005°55'0 0.0
2019-Feb-17 19:28N 54°36' W 005°55'0 0.0
2019-Feb-17 19:00N 54°36' W 005°55'0 0.0
2019-Feb-17 18:30N 54°36' W 005°55'0 0.0
2019-Feb-17 18:00N 54°36' W 005°55'0 0.0
2019-Feb-17 17:30N 54°36' W 005°55'0 0.0
2019-Feb-17 17:00N 54°36' W 005°55'0 0.0
2019-Feb-17 16:30N 54°36' W 005°55'0 0.0
2019-Feb-17 16:00N 54°36' W 005°55'0 0.0
2019-Feb-17 15:30N 54°36' W 005°55'0 0.0
2019-Feb-17 15:00N 54°36' W 005°55'0 0.0
2019-Feb-17 14:30N 54°36' W 005°55'0 0.0
2019-Feb-17 14:00N 54°36' W 005°55'0 0.0
2019-Feb-17 13:27N 54°36' W 005°55'0 0.0
2019-Feb-17 13:00N 54°36' W 005°55'0 0.0
2019-Feb-17 12:27N 54°36' W 005°55'0 0.0
2019-Feb-17 12:00N 54°36' W 005°55'0 0.0
2019-Feb-17 11:30N 54°36' W 005°55'0 0.0
2019-Feb-17 11:00N 54°36' W 005°55'0 0.0
2019-Feb-17 10:30N 54°36' W 005°55'0 0.0
2019-Feb-17 10:00N 54°36' W 005°55'0 0.0
2019-Feb-17 09:30N 54°36' W 005°55'0 0.0
2019-Feb-17 09:00N 54°36' W 005°55'0 0.0
2019-Feb-17 08:30N 54°36' W 005°55'0 0.0
2019-Feb-17 08:00N 54°36' W 005°55'0 0.0
2019-Feb-17 07:30N 54°36' W 005°55'0 0.0
2019-Feb-17 07:00N 54°36' W 005°55'0 0.0
2019-Feb-17 06:30N 54°36' W 005°55'0 0.0
2019-Feb-17 06:00N 54°36' W 005°55'0 0.0
2019-Feb-17 05:30N 54°36' W 005°55'0 0.0
2019-Feb-17 05:00N 54°36' W 005°55'0 0.0
2019-Feb-17 04:30N 54°36' W 005°55'0 0.0
2019-Feb-17 03:57N 54°36' W 005°55'0 0.0
2019-Feb-17 03:30N 54°36' W 005°55'0 0.0
2019-Feb-17 02:57N 54°36' W 005°55'0 0.0
2019-Feb-17 02:27N 54°36' W 005°55'0 0.0
2019-Feb-17 02:00N 54°36' W 005°55'0 0.0
2019-Feb-17 01:30N 54°36' W 005°55'0 0.0
2019-Feb-17 01:00N 54°36' W 005°55'0 0.0
2019-Feb-17 00:30N 54°36' W 005°55'0 0.0
2019-Feb-17 00:00N 54°36' W 005°55'0 0.0
2019-Feb-16 23:30N 54°36' W 005°55'0 0.0
2019-Feb-16 23:00N 54°36' W 005°55'0 0.0
2019-Feb-16 22:30N 54°36' W 005°55'0 0.0
2019-Feb-16 22:00N 54°36' W 005°55'0 0.0
2019-Feb-16 21:30N 54°36' W 005°55'0 0.0
2019-Feb-16 21:00N 54°36' W 005°55'0 0.0
2019-Feb-16 20:30N 54°36' W 005°55'0 0.0
2019-Feb-16 20:00N 54°36' W 005°55'0 0.0
2019-Feb-16 19:30N 54°36' W 005°55'0 0.0
2019-Feb-16 19:00N 54°36' W 005°55'0 0.0
2019-Feb-16 18:27N 54°36' W 005°55'0 0.0
2019-Feb-16 18:00N 54°36' W 005°55'0 0.0
2019-Feb-16 17:30N 54°36' W 005°55'0 0.0
2019-Feb-16 17:00N 54°36' W 005°55'0 0.0
2019-Feb-16 16:30N 54°36' W 005°55'0 0.0
2019-Feb-16 16:00N 54°36' W 005°55'0 0.0
2019-Feb-16 15:30N 54°36' W 005°55'0 0.0
2019-Feb-16 15:00N 54°36' W 005°55'0 0.0
2019-Feb-16 14:30N 54°36' W 005°55'0 0.0
2019-Feb-16 14:00N 54°36' W 005°55'0 0.0
2019-Feb-16 13:29N 54°36' W 005°55'0 0.0
2019-Feb-16 13:00N 54°36' W 005°55'0 0.0
2019-Feb-16 12:30N 54°36' W 005°55'0 0.0
2019-Feb-16 12:00N 54°36' W 005°55'0 0.0
2019-Feb-16 11:29N 54°36' W 005°55'0 0.0
2019-Feb-16 11:00N 54°36' W 005°55'0 0.0
2019-Feb-16 10:29N 54°36' W 005°55'0 0.0
2019-Feb-16 09:59N 54°36' W 005°55'0 0.0
2019-Feb-16 09:29N 54°36' W 005°55'0 0.0
2019-Feb-16 09:00N 54°36' W 005°55'0 0.0
2019-Feb-16 08:29N 54°36' W 005°55'0 0.0
2019-Feb-16 07:59N 54°36' W 005°55'0 0.0
2019-Feb-16 07:29N 54°36' W 005°55'0 0.0
2019-Feb-16 06:59N 54°36' W 005°55'0 0.0
2019-Feb-16 06:29N 54°36' W 005°55'0 0.0
2019-Feb-16 05:59N 54°36' W 005°55'0 0.0
2019-Feb-16 05:29N 54°36' W 005°55'0 0.0
2019-Feb-16 04:59N 54°36' W 005°55'0 0.0
2019-Feb-16 04:29N 54°36' W 005°55'0 0.0
2019-Feb-16 03:59N 54°36' W 005°55'0 0.0
2019-Feb-16 03:29N 54°36' W 005°55'0 0.0
2019-Feb-16 02:59N 54°36' W 005°55'0 0.0
2019-Feb-16 02:26N 54°36' W 005°55'0 0.0
2019-Feb-16 01:59N 54°36' W 005°55'0 0.0
2019-Feb-16 01:29N 54°36' W 005°55'0 0.0
2019-Feb-16 00:59N 54°36' W 005°55'0 0.0
2019-Feb-16 00:29N 54°36' W 005°55'0 0.0
2019-Feb-15 23:59N 54°36' W 005°55'0 0.0
2019-Feb-15 23:29N 54°36' W 005°55'0 0.0
2019-Feb-15 22:59N 54°36' W 005°55'0 0.0
2019-Feb-15 22:29N 54°36' W 005°55'0 0.0
2019-Feb-15 21:59N 54°36' W 005°55'0 0.0
2019-Feb-15 21:29N 54°36' W 005°55'0 0.0
2019-Feb-15 20:59N 54°36' W 005°55'0 0.0
2019-Feb-15 20:29N 54°36' W 005°55'0 0.0
2019-Feb-15 19:59N 54°36' W 005°55'0 0.0
2019-Feb-15 19:29N 54°36' W 005°55'0 0.0
2019-Feb-15 18:59N 54°36' W 005°55'0 0.0
2019-Feb-15 18:29N 54°36' W 005°55'0 0.2
2019-Feb-15 17:59N 54°36' W 005°55'0 0.4
2019-Feb-15 17:29N 54°36' W 005°55'0 0.0
2019-Feb-15 16:59N 54°36' W 005°55'0 0.0
2019-Feb-15 16:29N 54°36' W 005°55'0 0.0
2019-Feb-15 15:59N 54°36' W 005°55'0 0.0
2019-Feb-15 15:29N 54°36' W 005°55'0 0.0
2019-Feb-15 14:59N 54°36' W 005°55'0 0.0
2019-Feb-15 14:29N 54°36' W 005°55'0 0.0
2019-Feb-15 13:59N 54°36' W 005°55'0 0.0
2019-Feb-15 13:29N 54°36' W 005°55'0 0.0
2019-Feb-15 12:59N 54°36' W 005°55'0 0.0
2019-Feb-15 12:29N 54°36' W 005°55'0 0.0
2019-Feb-15 11:59N 54°36' W 005°55'0 0.0
2019-Feb-15 11:29N 54°36' W 005°55'0 0.0
2019-Feb-15 10:59N 54°36' W 005°55'0 0.0
2019-Feb-15 10:29N 54°36' W 005°55'0 0.0
2019-Feb-15 09:59N 54°36' W 005°55'0 0.0
2019-Feb-15 09:29N 54°36' W 005°55'0 0.0
2019-Feb-15 08:59N 54°36' W 005°55'0 0.0
2019-Feb-15 08:29N 54°36' W 005°55'0 0.0
2019-Feb-15 07:59N 54°36' W 005°55'0 0.0
2019-Feb-15 07:29N 54°36' W 005°55'0 0.0
2019-Feb-15 06:59N 54°36' W 005°55'0 0.0
2019-Feb-15 06:29N 54°36' W 005°55'0 0.0
2019-Feb-15 05:59N 54°36' W 005°55'0 0.0
2019-Feb-15 05:28N 54°36' W 005°55'0 0.0
2019-Feb-15 04:55N 54°36' W 005°55'0 0.0
2019-Feb-15 04:29N 54°36' W 005°55'0 0.0
2019-Feb-15 03:58N 54°36' W 005°55'0 0.0
2019-Feb-15 03:29N 54°36' W 005°55'0 0.0
2019-Feb-15 02:58N 54°36' W 005°55'0 0.0
2019-Feb-15 02:28N 54°36' W 005°55'0 0.0
2019-Feb-15 01:58N 54°36' W 005°55'0 0.0
2019-Feb-15 01:28N 54°36' W 005°55'0 0.0
2019-Feb-15 00:58N 54°36' W 005°55'0 0.0
2019-Feb-15 00:28N 54°36' W 005°55'0 0.0
2019-Feb-14 23:58N 54°36' W 005°55'0 0.0
2019-Feb-14 23:28N 54°36' W 005°55'0 0.0
2019-Feb-14 22:58N 54°36' W 005°55'0 0.0
2019-Feb-14 22:28N 54°36' W 005°55'0 0.0
2019-Feb-14 21:58N 54°36' W 005°55'0 0.0
2019-Feb-14 21:28N 54°36' W 005°55'0 0.0
2019-Feb-14 20:58N 54°36' W 005°55'0 0.0
2019-Feb-14 20:28N 54°36' W 005°55'0 0.0
2019-Feb-14 19:58N 54°36' W 005°55'0 0.0
2019-Feb-14 19:28N 54°36' W 005°55'0 0.0
2019-Feb-14 18:58N 54°36' W 005°55'0 0.0
2019-Feb-14 18:28N 54°36' W 005°55'0 0.0
2019-Feb-14 17:55N 54°36' W 005°55'0 0.0
2019-Feb-14 17:28N 54°36' W 005°55'0 0.0
2019-Feb-14 16:58N 54°36' W 005°55'0 0.0
2019-Feb-14 16:28N 54°36' W 005°55'0 0.0
2019-Feb-14 15:58N 54°36' W 005°55'0 0.0
2019-Feb-14 15:28N 54°36' W 005°55'0 0.0
2019-Feb-14 14:58N 54°36' W 005°55'0 0.0
2019-Feb-14 14:28N 54°36' W 005°55'0 0.0
2019-Feb-14 13:58N 54°36' W 005°55'0 0.0
2019-Feb-14 13:28N 54°36' W 005°55'0 0.0
2019-Feb-14 12:58N 54°36' W 005°55'0 0.0
2019-Feb-14 12:28N 54°36' W 005°55'0 0.0
2019-Feb-14 11:58N 54°36' W 005°55'0 0.0
2019-Feb-14 11:28N 54°36' W 005°55'0 0.0
2019-Feb-14 10:52N 54°36' W 005°55'0 0.0
2019-Feb-14 10:28N 54°36' W 005°55'0 0.0
2019-Feb-14 09:58N 54°36' W 005°55'0 0.0
2019-Feb-14 09:28N 54°36' W 005°55'0 0.0
2019-Feb-14 08:58N 54°36' W 005°55'0 0.0
2019-Feb-14 08:28N 54°36' W 005°55'0 0.0
2019-Feb-14 07:58N 54°36' W 005°55'0 0.0
2019-Feb-14 07:28N 54°36' W 005°55'0 0.0
2019-Feb-14 06:46N 54°36' W 005°55'0 0.0
2019-Feb-14 06:28N 54°36' W 005°55'0 0.0
2019-Feb-14 05:58N 54°36' W 005°55'0 0.0
2019-Feb-14 05:28N 54°36' W 005°55'0 0.0
2019-Feb-14 04:58N 54°36' W 005°55'0 0.0
2019-Feb-14 04:28N 54°36' W 005°55'0 0.0
2019-Feb-14 03:58N 54°36' W 005°55'0 0.0
2019-Feb-14 02:58N 54°36' W 005°55'0 0.0
2019-Feb-14 02:28N 54°36' W 005°55'0 0.0
2019-Feb-14 01:58N 54°36' W 005°55'0 0.0
2019-Feb-14 01:28N 54°36' W 005°55'0 0.0
2019-Feb-14 00:58N 54°36' W 005°55'0 0.0
2019-Feb-14 00:28N 54°36' W 005°55'0 0.0
2019-Feb-14 00:00N 54°36' W 005°55'0 0.0
2019-Feb-13 23:28N 54°36' W 005°55'0 0.0
2019-Feb-13 22:58N 54°36' W 005°55'0 0.0
2019-Feb-13 22:31N 54°36' W 005°55'0 0.0
2019-Feb-13 22:01N 54°36' W 005°55'0 0.0
2019-Feb-13 21:27N 54°36' W 005°55'0 0.0
2019-Feb-13 21:00N 54°36' W 005°55'0 0.0
2019-Feb-13 20:30N 54°36' W 005°55'0 0.0
2019-Feb-13 20:00N 54°36' W 005°55'0 0.0
2019-Feb-13 19:30N 54°36' W 005°55'0 0.0
2019-Feb-13 18:57N 54°36' W 005°55'0 0.1
2019-Feb-13 18:28N 54°37' W 005°55'2 4.3
2019-Feb-13 18:00N 54°38' W 005°53'4 7.4
2019-Feb-13 17:30N 54°41' W 005°49'5 9.2
2019-Feb-13 17:00N 54°43' W 005°42'4 8.7
2019-Feb-13 16:30N 54°48' W 005°40'5 9.1
2019-Feb-13 16:00N 54°52' W 005°42'5 9.8
2019-Feb-13 15:29N 54°56' W 005°47'3 2.2
2019-Feb-13 14:20N 54°58' W 005°50'3 2.4
2019-Feb-13 13:14N 54°58' W 005°55'1510.1
2019-Feb-13 11:46N 55°13' W 006°02'311.2
2019-Feb-13 11:30N 55°14' W 006°06'510.8
2019-Feb-13 11:00N 55°15' W 006°15'3 5.6
2019-Feb-13 10:30N 55°16' W 006°20'1 2.5
2019-Feb-13 10:00N 55°16' W 006°18'1 2.7
2019-Feb-13 09:28N 55°17' W 006°19'0 0.4
2019-Feb-13 09:00N 55°17' W 006°19'3 6.3
2019-Feb-13 08:28N 55°16' W 006°25'1 2.5
2019-Feb-13 08:00N 55°16' W 006°27'0 0.5
2019-Feb-13 07:30N 55°16' W 006°26'1 2.4
2019-Feb-13 07:00N 55°17' W 006°29'3 5.2
2019-Feb-13 06:30N 55°16' W 006°33'2 3.0
2019-Feb-13 06:00N 55°15' W 006°35'0 0.9
2019-Feb-13 05:30N 55°15' W 006°36'1 1.0
2019-Feb-13 05:00N 55°15' W 006°36'1 1.0
2019-Feb-13 04:30N 55°14' W 006°35'1 1.1
2019-Feb-13 04:00N 55°14' W 006°34'1 1.0
2019-Feb-13 03:30N 55°14' W 006°34'1 1.0
2019-Feb-13 03:00N 55°15' W 006°33'0 0.4
2019-Feb-13 02:30N 55°14' W 006°33'1 1.1
2019-Feb-13 02:00N 55°14' W 006°33'0 0.8
2019-Feb-13 01:30N 55°14' W 006°34'0 0.9
2019-Feb-13 01:00N 55°15' W 006°34'0 0.6
2019-Feb-13 00:29N 55°15' W 006°35'0 0.7
2019-Feb-13 00:00N 55°15' W 006°35'0 0.4
2019-Feb-12 23:30N 55°15' W 006°35'1 2.1
2019-Feb-12 23:00N 55°14' W 006°35'1 1.2
2019-Feb-12 22:30N 55°14' W 006°34'1 1.1
2019-Feb-12 22:00N 55°14' W 006°34'0 0.5
2019-Feb-12 21:30N 55°15' W 006°35'1 1.1
2019-Feb-12 21:00N 55°14' W 006°35'0 1.0
2019-Feb-12 20:30N 55°15' W 006°35'0 0.2
2019-Feb-12 20:00N 55°15' W 006°35'0 0.3
2019-Feb-12 19:31N 55°15' W 006°35'1 1.2
2019-Feb-12 18:56N 55°15' W 006°35'1 1.3
2019-Feb-12 18:30N 55°16' W 006°35'1 2.5
2019-Feb-12 18:00N 55°17' W 006°37'5 8.4
2019-Feb-12 17:27N 55°17' W 006°45'1 2.4
2019-Feb-12 17:00N 55°18' W 006°46'4 5.1
2019-Feb-12 16:14N 55°19' W 006°52'1 2.5
2019-Feb-12 15:58N 55°20' W 006°53'2 3.7
2019-Feb-12 15:30N 55°21' W 006°55'2 2.7
2019-Feb-12 14:55N 55°22' W 006°53'1 2.3
2019-Feb-12 14:30N 55°22' W 006°52'1 2.6
2019-Feb-12 13:59N 55°23' W 006°49'1 2.5
2019-Feb-12 13:30N 55°23' W 006°47'1 2.7
2019-Feb-12 13:00N 55°24' W 006°47'1 2.5
2019-Feb-12 12:30N 55°24' W 006°45'1 2.2
2019-Feb-12 12:00N 55°25' W 006°44'1 2.1
2019-Feb-12 11:30N 55°25' W 006°42'1 2.2
2019-Feb-12 11:00N 55°25' W 006°40'0 0.7
2019-Feb-12 10:30N 55°24' W 006°40'1 1.3
2019-Feb-12 10:00N 55°24' W 006°40'2 3.8
2019-Feb-12 09:30N 55°24' W 006°36'1 2.5
2019-Feb-12 09:00N 55°24' W 006°38'2 3.9
2019-Feb-12 08:30N 55°25' W 006°35'1 2.1
2019-Feb-12 08:00N 55°26' W 006°36'0 1.0
2019-Feb-12 07:30N 55°26' W 006°36'0 0.7
2019-Feb-12 07:00N 55°25' W 006°35'1 1.4
2019-Feb-12 06:30N 55°26' W 006°37'1 1.2
2019-Feb-12 05:59N 55°25' W 006°37'1 2.5
2019-Feb-12 05:30N 55°24' W 006°38'1 1.3
2019-Feb-12 05:00N 55°23' W 006°38'0 0.8
2019-Feb-12 04:30N 55°23' W 006°37'0 0.7
2019-Feb-12 04:00N 55°23' W 006°37'1 2.1
2019-Feb-12 03:30N 55°24' W 006°37'1 2.0
2019-Feb-12 03:00N 55°25' W 006°37'1 2.0
2019-Feb-12 02:30N 55°26' W 006°37'1 1.7
2019-Feb-12 02:00N 55°27' W 006°37'1 2.5
2019-Feb-12 01:30N 55°28' W 006°38'1 1.3
2019-Feb-12 01:00N 55°28' W 006°37'1 2.6
2019-Feb-12 00:30N 55°26' W 006°36'1 2.9
2019-Feb-12 00:00N 55°25' W 006°35'3 5.3
2019-Feb-11 23:30N 55°23' W 006°32'3 5.5
2019-Feb-11 23:00N 55°21' W 006°29'4 7.1
2019-Feb-11 22:30N 55°18' W 006°24'4 8.1
2019-Feb-11 22:00N 55°16' W 006°19'4 7.8
2019-Feb-11 21:30N 55°14' W 006°12'3 6.9
2019-Feb-11 21:00N 55°14' W 006°06'2110.2
2019-Feb-11 18:58N 54°56' W 005°49'1 1.6
2019-Feb-11 18:30N 54°55' W 005°50'0 0.8
2019-Feb-11 18:00N 54°55' W 005°51'2 3.5
2019-Feb-11 17:30N 54°53' W 005°49'4 7.3
2019-Feb-11 17:00N 54°52' W 005°44'5 9.7
2019-Feb-11 16:31N 54°47' W 005°41'1 2.4
2019-Feb-11 16:00N 54°48' W 005°41'2 3.1
2019-Feb-11 15:30N 54°47' W 005°40'1 2.8
2019-Feb-11 15:00N 54°45' W 005°40'1 1.7
2019-Feb-11 14:30N 54°45' W 005°40'2 3.1
2019-Feb-11 14:00N 54°44' W 005°38'1 3.0
2019-Feb-11 13:30N 54°43' W 005°36'1 2.5
2019-Feb-11 13:00N 54°42' W 005°34'2 4.0
2019-Feb-11 12:30N 54°40' W 005°33'3 6.5
2019-Feb-11 12:00N 54°38' W 005°30'1 2.4
2019-Feb-11 11:31N 54°36' W 005°29'  
Track history (hours):
 
Tides and Currents Weather Stations Pressure Air Temp Water Temp Dewpoint Dewpoint Depression Visibility Wind Speed Wind Dir Waves Ship Positions

Oceanographic research ship Corystes (UK)

Detailed information on ship capabilities available from University of Delaware's Ocean Information Center.

Last reported at 2019-Feb-21 11:30 UTC. Time now 2019-Feb-21 11:32 UTC.
Position N 55°15' W 006°24'.

Length 53 m; draft 5.2 m.

Type: Cargo ship. MMSI: 233558000.

Date/timePositionNaut miles runAvg speedWind from/ knotsBaromVisibWave heightAir tempDewpointWater temp
2019-Feb-21 11:30N 55°15' W 006°24'3 5.7
2019-Feb-21 10:59N 55°16' W 006°29'3 7.2
2019-Feb-21 10:31N 55°14' W 006°34'5 7.4
2019-Feb-21 09:50N 55°13' W 006°43'6 4.6
2019-Feb-21 08:35N 55°14' W 006°53'0 0.3
2019-Feb-21 08:03N 55°14' W 006°53'0 0.9
2019-Feb-21 07:55N 55°14' W 006°53'3 2.3
2019-Feb-21 06:42N 55°15' W 006°48'1 2.2
2019-Feb-21 06:26N 55°15' W 006°47'2 3.5
2019-Feb-21 05:59N 55°15' W 006°44'2 4.2
2019-Feb-21 05:30N 55°15' W 006°41'3 6.5
2019-Feb-21 05:00N 55°16' W 006°35'4 8.7
2019-Feb-21 04:30N 55°16' W 006°27'4 7.8
2019-Feb-21 04:00N 55°16' W 006°21'4 7.5
2019-Feb-21 03:30N 55°15' W 006°15'5 9.0
2019-Feb-21 03:00N 55°14' W 006°07'2010.6
2019-Feb-21 01:06N 54°57' W 005°49'1 9.9
2019-Feb-21 00:57N 54°56' W 005°48'4 9.7
2019-Feb-21 00:30N 54°53' W 005°43'5 9.3
2019-Feb-21 00:00N 54°48' W 005°40'5 9.7
2019-Feb-20 23:30N 54°43' W 005°41'4 8.6
2019-Feb-20 23:01N 54°41' W 005°47'4 8.2
2019-Feb-20 22:31N 54°38' W 005°52'2 0.2
2019-Feb-20 12:09N 54°36' W 005°55'0 0.0
2019-Feb-20 11:51N 54°36' W 005°55'0 0.0
2019-Feb-20 11:08N 54°36' W 005°55'0 0.0
2019-Feb-20 10:14N 54°36' W 005°55'0 0.0
2019-Feb-20 09:26N 54°36' W 005°55'0 0.0
2019-Feb-20 06:41N 54°36' W 005°55'0 0.0
2019-Feb-20 01:02N 54°36' W 005°55'0 0.0
2019-Feb-20 00:56N 54°36' W 005°55'0 0.0
2019-Feb-19 23:14N 54°36' W 005°55'0 0.0
2019-Feb-19 22:38N 54°36' W 005°55'0 0.0
2019-Feb-19 21:56N 54°36' W 005°55'0 0.0
2019-Feb-19 19:43N 54°36' W 005°55'0 0.0
2019-Feb-19 19:01N 54°36' W 005°55'0 0.0
2019-Feb-19 17:26N 54°36' W 005°55'0 0.0
2019-Feb-19 16:56N 54°36' W 005°55'0 0.0
2019-Feb-19 16:26N 54°36' W 005°55'0 0.0
2019-Feb-19 15:59N 54°36' W 005°55'0 0.0
2019-Feb-19 15:29N 54°36' W 005°55'0 0.0
2019-Feb-19 14:59N 54°36' W 005°55'0 0.0
2019-Feb-19 14:29N 54°36' W 005°55'0 0.0
2019-Feb-19 13:56N 54°36' W 005°55'0 0.0
2019-Feb-19 13:29N 54°36' W 005°55'0 0.0
2019-Feb-19 12:56N 54°36' W 005°55'0 0.0
2019-Feb-19 12:29N 54°36' W 005°55'0 0.0
2019-Feb-19 11:56N 54°36' W 005°55'0 0.0
2019-Feb-19 11:29N 54°36' W 005°55'0 0.0
2019-Feb-19 10:59N 54°36' W 005°55'0 0.0
2019-Feb-19 10:29N 54°36' W 005°55'0 0.0
2019-Feb-19 09:59N 54°36' W 005°55'0 0.0
2019-Feb-19 09:29N 54°36' W 005°55'0 0.0
2019-Feb-19 08:59N 54°36' W 005°55'0 0.0
2019-Feb-19 08:26N 54°36' W 005°55'0 0.0
2019-Feb-19 07:59N 54°36' W 005°55'0 0.0
2019-Feb-19 07:29N 54°36' W 005°55'0 0.0
2019-Feb-19 06:59N 54°36' W 005°55'0 0.0
2019-Feb-19 06:29N 54°36' W 005°55'0 0.0
2019-Feb-19 05:56N 54°36' W 005°55'0 0.0
2019-Feb-19 05:29N 54°36' W 005°55'0 0.0
2019-Feb-19 04:59N 54°36' W 005°55'0 0.0
2019-Feb-19 04:29N 54°36' W 005°55'0 0.0
2019-Feb-19 03:59N 54°36' W 005°55'0 0.0
2019-Feb-19 03:29N 54°36' W 005°55'0 0.0
2019-Feb-19 02:59N 54°36' W 005°55'0 0.0
2019-Feb-19 02:29N 54°36' W 005°55'0 0.0
2019-Feb-19 01:58N 54°36' W 005°55'0 0.0
2019-Feb-19 01:25N 54°36' W 005°55'0 0.0
2019-Feb-19 00:59N 54°36' W 005°55'0 0.0
2019-Feb-19 00:28N 54°36' W 005°55'0 0.0
2019-Feb-18 23:59N 54°36' W 005°55'0 0.0
2019-Feb-18 23:28N 54°36' W 005°55'0 0.0
2019-Feb-18 22:58N 54°36' W 005°55'0 0.0
2019-Feb-18 22:28N 54°36' W 005°55'0 0.0
2019-Feb-18 21:58N 54°36' W 005°55'0 0.0
2019-Feb-18 21:28N 54°36' W 005°55'0 0.0
2019-Feb-18 20:58N 54°36' W 005°55'0 0.0
2019-Feb-18 20:28N 54°36' W 005°55'0 0.0
2019-Feb-18 19:55N 54°36' W 005°55'0 0.0
2019-Feb-18 19:28N 54°36' W 005°55'0 0.0
2019-Feb-18 18:58N 54°36' W 005°55'0 0.0
2019-Feb-18 18:28N 54°36' W 005°55'0 0.5
2019-Feb-18 17:58N 54°36' W 005°55'0 0.1
2019-Feb-18 17:28N 54°36' W 005°55'0 0.0
2019-Feb-18 16:58N 54°36' W 005°55'0 0.0
2019-Feb-18 16:28N 54°36' W 005°55'0 0.0
2019-Feb-18 15:58N 54°36' W 005°55'0 0.0
2019-Feb-18 15:28N 54°36' W 005°55'0 0.0
2019-Feb-18 14:58N 54°36' W 005°55'0 0.0
2019-Feb-18 14:28N 54°36' W 005°55'0 0.0
2019-Feb-18 13:58N 54°36' W 005°55'0 0.0
2019-Feb-18 13:28N 54°36' W 005°55'0 0.0
2019-Feb-18 12:55N 54°36' W 005°55'0 0.0
2019-Feb-18 12:25N 54°36' W 005°55'0 0.0
2019-Feb-18 11:58N 54°36' W 005°55'0 0.0
2019-Feb-18 11:28N 54°36' W 005°55'0 0.0
2019-Feb-18 10:58N 54°36' W 005°55'0 0.0
2019-Feb-18 10:28N 54°36' W 005°55'0 0.0
2019-Feb-18 09:58N 54°36' W 005°55'0 0.0
2019-Feb-18 09:25N 54°36' W 005°55'0 0.0
2019-Feb-18 08:55N 54°36' W 005°55'0 0.0
2019-Feb-18 08:28N 54°36' W 005°55'0 0.0
2019-Feb-18 07:58N 54°36' W 005°55'0 0.0
2019-Feb-18 07:28N 54°36' W 005°55'0 0.0
2019-Feb-18 06:58N 54°36' W 005°55'0 0.0
2019-Feb-18 06:28N 54°36' W 005°55'0 0.0
2019-Feb-18 05:55N 54°36' W 005°55'0 0.0
2019-Feb-18 05:28N 54°36' W 005°55'0 0.0
2019-Feb-18 04:55N 54°36' W 005°55'0 0.0
2019-Feb-18 04:28N 54°36' W 005°55'0 0.0
2019-Feb-18 03:58N 54°36' W 005°55'0 0.0
2019-Feb-18 03:28N 54°36' W 005°55'0 0.0
2019-Feb-18 02:55N 54°36' W 005°55'0 0.0
2019-Feb-18 02:28N 54°36' W 005°55'0 0.0
2019-Feb-18 01:55N 54°36' W 005°55'0 0.0
2019-Feb-18 01:28N 54°36' W 005°55'0 0.0
2019-Feb-18 00:58N 54°36' W 005°55'0 0.0
2019-Feb-18 00:28N 54°36' W 005°55'0 0.0
2019-Feb-17 23:58N 54°36' W 005°55'0 0.0
2019-Feb-17 23:28N 54°36' W 005°55'0 0.0
2019-Feb-17 22:58N 54°36' W 005°55'0 0.0
2019-Feb-17 22:28N 54°36' W 005°55'0 0.0
2019-Feb-17 21:58N 54°36' W 005°55'0 0.0
2019-Feb-17 21:25N 54°36' W 005°55'0 0.0
2019-Feb-17 20:58N 54°36' W 005°55'0 0.0
2019-Feb-17 20:31N 54°36' W 005°55'0 0.0
2019-Feb-17 19:58N 54°36' W 005°55'0 0.0
2019-Feb-17 19:28N 54°36' W 005°55'0 0.0
2019-Feb-17 19:00N 54°36' W 005°55'0 0.0
2019-Feb-17 18:30N 54°36' W 005°55'0 0.0
2019-Feb-17 18:00N 54°36' W 005°55'0 0.0
2019-Feb-17 17:30N 54°36' W 005°55'0 0.0
2019-Feb-17 17:00N 54°36' W 005°55'0 0.0
2019-Feb-17 16:30N 54°36' W 005°55'0 0.0
2019-Feb-17 16:00N 54°36' W 005°55'0 0.0
2019-Feb-17 15:30N 54°36' W 005°55'0 0.0
2019-Feb-17 15:00N 54°36' W 005°55'0 0.0
2019-Feb-17 14:30N 54°36' W 005°55'0 0.0
2019-Feb-17 14:00N 54°36' W 005°55'0 0.0
2019-Feb-17 13:27N 54°36' W 005°55'0 0.0
2019-Feb-17 13:00N 54°36' W 005°55'0 0.0
2019-Feb-17 12:27N 54°36' W 005°55'0 0.0
2019-Feb-17 12:00N 54°36' W 005°55'0 0.0
2019-Feb-17 11:30N 54°36' W 005°55'0 0.0
2019-Feb-17 11:00N 54°36' W 005°55'0 0.0
2019-Feb-17 10:30N 54°36' W 005°55'0 0.0
2019-Feb-17 10:00N 54°36' W 005°55'0 0.0
2019-Feb-17 09:30N 54°36' W 005°55'0 0.0
2019-Feb-17 09:00N 54°36' W 005°55'0 0.0
2019-Feb-17 08:30N 54°36' W 005°55'0 0.0
2019-Feb-17 08:00N 54°36' W 005°55'0 0.0
2019-Feb-17 07:30N 54°36' W 005°55'0 0.0
2019-Feb-17 07:00N 54°36' W 005°55'0 0.0
2019-Feb-17 06:30N 54°36' W 005°55'0 0.0
2019-Feb-17 06:00N 54°36' W 005°55'0 0.0
2019-Feb-17 05:30N 54°36' W 005°55'0 0.0
2019-Feb-17 05:00N 54°36' W 005°55'0 0.0
2019-Feb-17 04:30N 54°36' W 005°55'0 0.0
2019-Feb-17 03:57N 54°36' W 005°55'0 0.0
2019-Feb-17 03:30N 54°36' W 005°55'0 0.0
2019-Feb-17 02:57N 54°36' W 005°55'0 0.0
2019-Feb-17 02:27N 54°36' W 005°55'0 0.0
2019-Feb-17 02:00N 54°36' W 005°55'0 0.0
2019-Feb-17 01:30N 54°36' W 005°55'0 0.0
2019-Feb-17 01:00N 54°36' W 005°55'0 0.0
2019-Feb-17 00:30N 54°36' W 005°55'0 0.0
2019-Feb-17 00:00N 54°36' W 005°55'0 0.0
2019-Feb-16 23:30N 54°36' W 005°55'0 0.0
2019-Feb-16 23:00N 54°36' W 005°55'0 0.0
2019-Feb-16 22:30N 54°36' W 005°55'0 0.0
2019-Feb-16 22:00N 54°36' W 005°55'0 0.0
2019-Feb-16 21:30N 54°36' W 005°55'0 0.0
2019-Feb-16 21:00N 54°36' W 005°55'0 0.0
2019-Feb-16 20:30N 54°36' W 005°55'0 0.0
2019-Feb-16 20:00N 54°36' W 005°55'0 0.0
2019-Feb-16 19:30N 54°36' W 005°55'0 0.0
2019-Feb-16 19:00N 54°36' W 005°55'0 0.0
2019-Feb-16 18:27N 54°36' W 005°55'0 0.0
2019-Feb-16 18:00N 54°36' W 005°55'0 0.0
2019-Feb-16 17:30N 54°36' W 005°55'0 0.0
2019-Feb-16 17:00N 54°36' W 005°55'0 0.0
2019-Feb-16 16:30N 54°36' W 005°55'0 0.0
2019-Feb-16 16:00N 54°36' W 005°55'0 0.0
2019-Feb-16 15:30N 54°36' W 005°55'0 0.0
2019-Feb-16 15:00N 54°36' W 005°55'0 0.0
2019-Feb-16 14:30N 54°36' W 005°55'0 0.0
2019-Feb-16 14:00N 54°36' W 005°55'0 0.0
2019-Feb-16 13:29N 54°36' W 005°55'0 0.0
2019-Feb-16 13:00N 54°36' W 005°55'0 0.0
2019-Feb-16 12:30N 54°36' W 005°55'0 0.0
2019-Feb-16 12:00N 54°36' W 005°55'0 0.0
2019-Feb-16 11:29N 54°36' W 005°55'0 0.0
2019-Feb-16 11:00N 54°36' W 005°55'0 0.0
2019-Feb-16 10:29N 54°36' W 005°55'0 0.0
2019-Feb-16 09:59N 54°36' W 005°55'0 0.0
2019-Feb-16 09:29N 54°36' W 005°55'0 0.0
2019-Feb-16 09:00N 54°36' W 005°55'0 0.0
2019-Feb-16 08:29N 54°36' W 005°55'0 0.0
2019-Feb-16 07:59N 54°36' W 005°55'0 0.0
2019-Feb-16 07:29N 54°36' W 005°55'0 0.0
2019-Feb-16 06:59N 54°36' W 005°55'0 0.0
2019-Feb-16 06:29N 54°36' W 005°55'0 0.0
2019-Feb-16 05:59N 54°36' W 005°55'0 0.0
2019-Feb-16 05:29N 54°36' W 005°55'0 0.0
2019-Feb-16 04:59N 54°36' W 005°55'0 0.0
2019-Feb-16 04:29N 54°36' W 005°55'0 0.0
2019-Feb-16 03:59N 54°36' W 005°55'0 0.0
2019-Feb-16 03:29N 54°36' W 005°55'0 0.0
2019-Feb-16 02:59N 54°36' W 005°55'0 0.0
2019-Feb-16 02:26N 54°36' W 005°55'0 0.0
2019-Feb-16 01:59N 54°36' W 005°55'0 0.0
2019-Feb-16 01:29N 54°36' W 005°55'0 0.0
2019-Feb-16 00:59N 54°36' W 005°55'0 0.0
2019-Feb-16 00:29N 54°36' W 005°55'0 0.0
2019-Feb-15 23:59N 54°36' W 005°55'0 0.0
2019-Feb-15 23:29N 54°36' W 005°55'0 0.0
2019-Feb-15 22:59N 54°36' W 005°55'0 0.0
2019-Feb-15 22:29N 54°36' W 005°55'0 0.0
2019-Feb-15 21:59N 54°36' W 005°55'0 0.0
2019-Feb-15 21:29N 54°36' W 005°55'0 0.0
2019-Feb-15 20:59N 54°36' W 005°55'0 0.0
2019-Feb-15 20:29N 54°36' W 005°55'0 0.0
2019-Feb-15 19:59N 54°36' W 005°55'0 0.0
2019-Feb-15 19:29N 54°36' W 005°55'0 0.0
2019-Feb-15 18:59N 54°36' W 005°55'0 0.0
2019-Feb-15 18:29N 54°36' W 005°55'0 0.2
2019-Feb-15 17:59N 54°36' W 005°55'0 0.4
2019-Feb-15 17:29N 54°36' W 005°55'0 0.0
2019-Feb-15 16:59N 54°36' W 005°55'0 0.0
2019-Feb-15 16:29N 54°36' W 005°55'0 0.0
2019-Feb-15 15:59N 54°36' W 005°55'0 0.0
2019-Feb-15 15:29N 54°36' W 005°55'0 0.0
2019-Feb-15 14:59N 54°36' W 005°55'0 0.0
2019-Feb-15 14:29N 54°36' W 005°55'0 0.0
2019-Feb-15 13:59N 54°36' W 005°55'0 0.0
2019-Feb-15 13:29N 54°36' W 005°55'0 0.0
2019-Feb-15 12:59N 54°36' W 005°55'0 0.0
2019-Feb-15 12:29N 54°36' W 005°55'0 0.0
2019-Feb-15 11:59N 54°36' W 005°55'0 0.0
2019-Feb-15 11:29N 54°36' W 005°55'0 0.0
2019-Feb-15 10:59N 54°36' W 005°55'0 0.0
2019-Feb-15 10:29N 54°36' W 005°55'0 0.0
2019-Feb-15 09:59N 54°36' W 005°55'0 0.0
2019-Feb-15 09:29N 54°36' W 005°55'0 0.0
2019-Feb-15 08:59N 54°36' W 005°55'0 0.0
2019-Feb-15 08:29N 54°36' W 005°55'0 0.0
2019-Feb-15 07:59N 54°36' W 005°55'0 0.0
2019-Feb-15 07:29N 54°36' W 005°55'0 0.0
2019-Feb-15 06:59N 54°36' W 005°55'0 0.0
2019-Feb-15 06:29N 54°36' W 005°55'0 0.0
2019-Feb-15 05:59N 54°36' W 005°55'0 0.0
2019-Feb-15 05:28N 54°36' W 005°55'0 0.0
2019-Feb-15 04:55N 54°36' W 005°55'0 0.0
2019-Feb-15 04:29N 54°36' W 005°55'0 0.0
2019-Feb-15 03:58N 54°36' W 005°55'0 0.0
2019-Feb-15 03:29N 54°36' W 005°55'0 0.0
2019-Feb-15 02:58N 54°36' W 005°55'0 0.0
2019-Feb-15 02:28N 54°36' W 005°55'0 0.0
2019-Feb-15 01:58N 54°36' W 005°55'0 0.0
2019-Feb-15 01:28N 54°36' W 005°55'0 0.0
2019-Feb-15 00:58N 54°36' W 005°55'0 0.0
2019-Feb-15 00:28N 54°36' W 005°55'0 0.0
2019-Feb-14 23:58N 54°36' W 005°55'0 0.0
2019-Feb-14 23:28N 54°36' W 005°55'0 0.0
2019-Feb-14 22:58N 54°36' W 005°55'0 0.0
2019-Feb-14 22:28N 54°36' W 005°55'0 0.0
2019-Feb-14 21:58N 54°36' W 005°55'0 0.0
2019-Feb-14 21:28N 54°36' W 005°55'0 0.0
2019-Feb-14 20:58N 54°36' W 005°55'0 0.0
2019-Feb-14 20:28N 54°36' W 005°55'0 0.0
2019-Feb-14 19:58N 54°36' W 005°55'0 0.0
2019-Feb-14 19:28N 54°36' W 005°55'0 0.0
2019-Feb-14 18:58N 54°36' W 005°55'0 0.0
2019-Feb-14 18:28N 54°36' W 005°55'0 0.0
2019-Feb-14 17:55N 54°36' W 005°55'0 0.0
2019-Feb-14 17:28N 54°36' W 005°55'0 0.0
2019-Feb-14 16:58N 54°36' W 005°55'0 0.0
2019-Feb-14 16:28N 54°36' W 005°55'0 0.0
2019-Feb-14 15:58N 54°36' W 005°55'0 0.0
2019-Feb-14 15:28N 54°36' W 005°55'0 0.0
2019-Feb-14 14:58N 54°36' W 005°55'0 0.0
2019-Feb-14 14:28N 54°36' W 005°55'0 0.0
2019-Feb-14 13:58N 54°36' W 005°55'0 0.0
2019-Feb-14 13:28N 54°36' W 005°55'0 0.0
2019-Feb-14 12:58N 54°36' W 005°55'0 0.0
2019-Feb-14 12:28N 54°36' W 005°55'0 0.0
2019-Feb-14 11:58N 54°36' W 005°55'0 0.0
2019-Feb-14 11:28N 54°36' W 005°55'0 0.0
2019-Feb-14 10:52N 54°36' W 005°55'0 0.0
2019-Feb-14 10:28N 54°36' W 005°55'0 0.0
2019-Feb-14 09:58N 54°36' W 005°55'0 0.0
2019-Feb-14 09:28N 54°36' W 005°55'0 0.0
2019-Feb-14 08:58N 54°36' W 005°55'0 0.0
2019-Feb-14 08:28N 54°36' W 005°55'0 0.0
2019-Feb-14 07:58N 54°36' W 005°55'0 0.0
2019-Feb-14 07:28N 54°36' W 005°55'0 0.0
2019-Feb-14 06:46N 54°36' W 005°55'0 0.0
2019-Feb-14 06:28N 54°36' W 005°55'0 0.0
2019-Feb-14 05:58N 54°36' W 005°55'0 0.0
2019-Feb-14 05:28N 54°36' W 005°55'0 0.0
2019-Feb-14 04:58N 54°36' W 005°55'0 0.0
2019-Feb-14 04:28N 54°36' W 005°55'0 0.0
2019-Feb-14 03:58N 54°36' W 005°55'0 0.0
2019-Feb-14 02:58N 54°36' W 005°55'0 0.0
2019-Feb-14 02:28N 54°36' W 005°55'0 0.0
2019-Feb-14 01:58N 54°36' W 005°55'0 0.0
2019-Feb-14 01:28N 54°36' W 005°55'0 0.0
2019-Feb-14 00:58N 54°36' W 005°55'0 0.0
2019-Feb-14 00:28N 54°36' W 005°55'0 0.0
2019-Feb-14 00:00N 54°36' W 005°55'0 0.0
2019-Feb-13 23:28N 54°36' W 005°55'0 0.0
2019-Feb-13 22:58N 54°36' W 005°55'0 0.0
2019-Feb-13 22:31N 54°36' W 005°55'0 0.0
2019-Feb-13 22:01N 54°36' W 005°55'0 0.0
2019-Feb-13 21:27N 54°36' W 005°55'0 0.0
2019-Feb-13 21:00N 54°36' W 005°55'0 0.0
2019-Feb-13 20:30N 54°36' W 005°55'0 0.0
2019-Feb-13 20:00N 54°36' W 005°55'0 0.0
2019-Feb-13 19:30N 54°36' W 005°55'0 0.0
2019-Feb-13 18:57N 54°36' W 005°55'0 0.1
2019-Feb-13 18:28N 54°37' W 005°55'2 4.3
2019-Feb-13 18:00N 54°38' W 005°53'4 7.4
2019-Feb-13 17:30N 54°41' W 005°49'5 9.2
2019-Feb-13 17:00N 54°43' W 005°42'4 8.7
2019-Feb-13 16:30N 54°48' W 005°40'5 9.1
2019-Feb-13 16:00N 54°52' W 005°42'5 9.8
2019-Feb-13 15:29N 54°56' W 005°47'3 2.2
2019-Feb-13 14:20N 54°58' W 005°50'3 2.4
2019-Feb-13 13:14N 54°58' W 005°55'1510.1
2019-Feb-13 11:46N 55°13' W 006°02'311.2
2019-Feb-13 11:30N 55°14' W 006°06'510.8
2019-Feb-13 11:00N 55°15' W 006°15'3 5.6
2019-Feb-13 10:30N 55°16' W 006°20'1 2.5
2019-Feb-13 10:00N 55°16' W 006°18'1 2.7
2019-Feb-13 09:28N 55°17' W 006°19'0 0.4
2019-Feb-13 09:00N 55°17' W 006°19'3 6.3
2019-Feb-13 08:28N 55°16' W 006°25'1 2.5
2019-Feb-13 08:00N 55°16' W 006°27'0 0.5
2019-Feb-13 07:30N 55°16' W 006°26'1 2.4
2019-Feb-13 07:00N 55°17' W 006°29'3 5.2
2019-Feb-13 06:30N 55°16' W 006°33'2 3.0
2019-Feb-13 06:00N 55°15' W 006°35'0 0.9
2019-Feb-13 05:30N 55°15' W 006°36'1 1.0
2019-Feb-13 05:00N 55°15' W 006°36'1 1.0
2019-Feb-13 04:30N 55°14' W 006°35'1 1.1
2019-Feb-13 04:00N 55°14' W 006°34'1 1.0
2019-Feb-13 03:30N 55°14' W 006°34'1 1.0
2019-Feb-13 03:00N 55°15' W 006°33'0 0.4
2019-Feb-13 02:30N 55°14' W 006°33'1 1.1
2019-Feb-13 02:00N 55°14' W 006°33'0 0.8
2019-Feb-13 01:30N 55°14' W 006°34'0 0.9
2019-Feb-13 01:00N 55°15' W 006°34'0 0.6
2019-Feb-13 00:29N 55°15' W 006°35'0 0.7
2019-Feb-13 00:00N 55°15' W 006°35'0 0.4
2019-Feb-12 23:30N 55°15' W 006°35'1 2.1
2019-Feb-12 23:00N 55°14' W 006°35'1 1.2
2019-Feb-12 22:30N 55°14' W 006°34'1 1.1
2019-Feb-12 22:00N 55°14' W 006°34'0 0.5
2019-Feb-12 21:30N 55°15' W 006°35'1 1.1
2019-Feb-12 21:00N 55°14' W 006°35'0 1.0
2019-Feb-12 20:30N 55°15' W 006°35'0 0.2
2019-Feb-12 20:00N 55°15' W 006°35'0 0.3
2019-Feb-12 19:31N 55°15' W 006°35'1 1.2
2019-Feb-12 18:56N 55°15' W 006°35'1 1.3
2019-Feb-12 18:30N 55°16' W 006°35'1 2.5
2019-Feb-12 18:00N 55°17' W 006°37'5 8.4
2019-Feb-12 17:27N 55°17' W 006°45'1 2.4
2019-Feb-12 17:00N 55°18' W 006°46'4 5.1
2019-Feb-12 16:14N 55°19' W 006°52'1 2.5
2019-Feb-12 15:58N 55°20' W 006°53'2 3.7
2019-Feb-12 15:30N 55°21' W 006°55'2 2.7
2019-Feb-12 14:55N 55°22' W 006°53'1 2.3
2019-Feb-12 14:30N 55°22' W 006°52'1 2.6
2019-Feb-12 13:59N 55°23' W 006°49'1 2.5
2019-Feb-12 13:30N 55°23' W 006°47'1 2.7
2019-Feb-12 13:00N 55°24' W 006°47'1 2.5
2019-Feb-12 12:30N 55°24' W 006°45'1 2.2
2019-Feb-12 12:00N 55°25' W 006°44'1 2.1
2019-Feb-12 11:30N 55°25' W 006°42'1 2.2
2019-Feb-12 11:00N 55°25' W 006°40'0 0.7
2019-Feb-12 10:30N 55°24' W 006°40'1 1.3
2019-Feb-12 10:00N 55°24' W 006°40'2 3.8
2019-Feb-12 09:30N 55°24' W 006°36'1 2.5
2019-Feb-12 09:00N 55°24' W 006°38'2 3.9
2019-Feb-12 08:30N 55°25' W 006°35'1 2.1
2019-Feb-12 08:00N 55°26' W 006°36'0 1.0
2019-Feb-12 07:30N 55°26' W 006°36'0 0.7
2019-Feb-12 07:00N 55°25' W 006°35'1 1.4
2019-Feb-12 06:30N 55°26' W 006°37'1 1.2
2019-Feb-12 05:59N 55°25' W 006°37'1 2.5
2019-Feb-12 05:30N 55°24' W 006°38'1 1.3
2019-Feb-12 05:00N 55°23' W 006°38'0 0.8
2019-Feb-12 04:30N 55°23' W 006°37'0 0.7
2019-Feb-12 04:00N 55°23' W 006°37'1 2.1
2019-Feb-12 03:30N 55°24' W 006°37'1 2.0
2019-Feb-12 03:00N 55°25' W 006°37'1 2.0
2019-Feb-12 02:30N 55°26' W 006°37'1 1.7
2019-Feb-12 02:00N 55°27' W 006°37'1 2.5
2019-Feb-12 01:30N 55°28' W 006°38'1 1.3
2019-Feb-12 01:00N 55°28' W 006°37'1 2.6
2019-Feb-12 00:30N 55°26' W 006°36'1 2.9
2019-Feb-12 00:00N 55°25' W 006°35'3 5.3
2019-Feb-11 23:30N 55°23' W 006°32'3 5.5
2019-Feb-11 23:00N 55°21' W 006°29'4 7.1
2019-Feb-11 22:30N 55°18' W 006°24'4 8.1
2019-Feb-11 22:00N 55°16' W 006°19'4 7.8
2019-Feb-11 21:30N 55°14' W 006°12'3 6.9
2019-Feb-11 21:00N 55°14' W 006°06'2110.2
2019-Feb-11 18:58N 54°56' W 005°49'1 1.6
2019-Feb-11 18:30N 54°55' W 005°50'0 0.8
2019-Feb-11 18:00N 54°55' W 005°51'2 3.5
2019-Feb-11 17:30N 54°53' W 005°49'4 7.3
2019-Feb-11 17:00N 54°52' W 005°44'5 9.7
2019-Feb-11 16:31N 54°47' W 005°41'1 2.4
2019-Feb-11 16:00N 54°48' W 005°41'2 3.1
2019-Feb-11 15:30N 54°47' W 005°40'1 2.8
2019-Feb-11 15:00N 54°45' W 005°40'1 1.7
2019-Feb-11 14:30N 54°45' W 005°40'2 3.1
2019-Feb-11 14:00N 54°44' W 005°38'1 3.0
2019-Feb-11 13:30N 54°43' W 005°36'1 2.5
2019-Feb-11 13:00N 54°42' W 005°34'2 4.0
2019-Feb-11 12:30N 54°40' W 005°33'3 6.5
2019-Feb-11 12:00N 54°38' W 005°30'1 2.4
2019-Feb-11 11:31N 54°36' W 005°29'  

Dump ship's entire track history